Time;durP1;ratioP1;P1;durP2;ratioP2;P2;SDS_P1;SDS_P2;PMS_P1;PMS_P2;Temp;Humidity;BMP_temperature;BMP_pressure;BME280_temperature;BME280_humidity;BME280_pressure;Samples;Min_cycle;Max_cycle;Signal;HPM_P1;HPM_P2
2023/01/23 00:01:24;;;;;;;3.42;0.43;;;;;;;1.64;49.59;103644.34;4980355;28;20030;-76
2023/01/23 00:03:50;;;;;;;2.47;0.60;;;;;;;1.60;49.40;103636.41;4983847;28;20034;-75
2023/01/23 00:06:15;;;;;;;7.93;1.60;;;;;;;1.46;49.96;103641.88;4965767;28;20385;-77
2023/01/23 00:08:42;;;;;;;2.83;0.40;;;;;;;1.58;49.68;103650.94;4982524;28;20069;-76
2023/01/23 00:11:10;;;;;;;4.15;0.60;;;;;;;1.57;49.95;103649.16;4981229;28;20444;-77
2023/01/23 00:13:36;;;;;;;4.45;0.45;;;;;;;1.59;49.66;103652.69;4981155;28;20038;-76
2023/01/23 00:16:13;;;;;;;2.05;0.43;;;;;;;1.65;49.73;103658.09;4980467;28;20566;-76
2023/01/23 00:18:39;;;;;;;4.22;0.75;;;;;;;1.60;49.84;103655.34;4982002;28;20670;-76
2023/01/23 00:21:11;;;;;;;3.55;0.45;;;;;;;1.68;49.68;103655.66;4982554;28;20022;-77
2023/01/23 00:23:37;;;;;;;4.10;0.70;;;;;;;1.67;49.92;103652.19;4981392;28;20550;-77
2023/01/23 00:26:07;;;;;;;1.45;0.50;;;;;;;1.54;49.51;103643.88;4982267;28;20695;-77
2023/01/23 00:28:33;;;;;;;2.50;0.47;;;;;;;1.53;49.73;103640.44;4979466;28;20194;-76
2023/01/23 00:31:11;;;;;;;4.97;0.63;;;;;;;1.56;49.81;103647.41;4981561;28;20076;-75
2023/01/23 00:33:38;;;;;;;2.63;0.30;;;;;;;1.57;49.92;103646.59;4983013;28;20133;-78
2023/01/23 00:36:04;;;;;;;5.47;0.98;;;;;;;1.46;50.22;103644.44;4982295;28;20030;-75
2023/01/23 00:38:31;;;;;;;2.10;0.70;;;;;;;1.54;50.15;103649.03;4963954;28;20019;-75
2023/01/23 00:40:56;;;;;;;3.05;0.57;;;;;;;1.48;49.82;103647.97;4982179;28;20033;-77
2023/01/23 00:43:23;;;;;;;2.60;0.43;;;;;;;1.51;49.96;103647.22;4979333;28;20076;-76
2023/01/23 00:45:49;;;;;;;3.95;0.50;;;;;;;1.42;50.29;103646.84;4981611;28;20092;-75
2023/01/23 00:48:14;;;;;;;7.50;0.57;;;;;;;1.44;50.20;103652.91;4963000;28;20046;-75
2023/01/23 00:50:40;;;;;;;6.85;0.70;;;;;;;1.34;50.53;103643.88;4982004;28;20042;-76
2023/01/23 00:53:05;;;;;;;4.22;0.75;;;;;;;1.39;50.39;103654.38;4980728;28;20042;-77
2023/01/23 00:55:31;;;;;;;5.18;0.40;;;;;;;1.38;50.15;103657.78;4978530;28;20117;-76
2023/01/23 00:57:56;;;;;;;4.32;0.40;;;;;;;1.45;50.17;103652.97;4981152;28;20046;-77
2023/01/23 01:00:22;;;;;;;2.53;0.40;;;;;;;1.39;50.32;103644.94;4980943;28;20034;-76
2023/01/23 01:02:47;;;;;;;4.18;0.77;;;;;;;1.49;49.99;103642.00;4983640;28;20050;-77
2023/01/23 01:05:14;;;;;;;4.88;0.50;;;;;;;1.51;49.86;103639.50;4982054;28;20046;-76
2023/01/23 01:07:40;;;;;;;5.07;0.55;;;;;;;1.51;50.15;103648.09;4982209;28;20042;-76
2023/01/23 01:10:05;;;;;;;2.50;0.40;;;;;;;1.50;50.30;103650.59;4982424;28;20392;-76
2023/01/23 01:12:31;;;;;;;1.73;0.70;;;;;;;1.44;50.25;103653.81;4978603;28;20508;-75
2023/01/23 01:14:56;;;;;;;2.72;0.50;;;;;;;1.44;50.31;103661.53;4963486;28;20439;-77
2023/01/23 01:17:22;;;;;;;3.35;0.60;;;;;;;1.24;51.06;103657.19;4980638;28;20126;-76
2023/01/23 01:19:47;;;;;;;5.25;1.10;;;;;;;1.47;50.21;103661.66;4983664;28;20057;-77
2023/01/23 01:22:13;;;;;;;1.50;0.68;;;;;;;1.44;50.66;103665.78;4981992;28;20397;-78
2023/01/23 01:24:41;;;;;;;1.92;0.82;;;;;;;1.54;49.97;103672.25;4980159;28;20042;-76
2023/01/23 01:27:06;;;;;;;3.10;0.95;;;;;;;1.55;49.92;103679.16;4980189;28;20132;-76
2023/01/23 01:29:32;;;;;;;3.38;0.77;;;;;;;1.52;50.26;103669.59;4981725;28;20475;-76
2023/01/23 01:31:58;;;;;;;3.65;0.60;;;;;;;1.43;50.39;103666.63;4981077;28;20050;-76
2023/01/23 01:34:24;;;;;;;2.08;0.75;;;;;;;1.46;50.68;103661.59;4980236;28;20041;-75
2023/01/23 01:36:50;;;;;;;1.42;0.93;;;;;;;1.49;50.38;103662.63;4981425;28;20555;-76
2023/01/23 01:39:16;;;;;;;2.00;0.47;;;;;;;1.43;50.60;103670.06;4980167;28;20037;-76
2023/01/23 01:41:41;;;;;;;2.55;0.95;;;;;;;1.40;50.93;103663.91;4980135;28;20394;-75
2023/01/23 01:44:20;;;;;;;4.50;0.70;;;;;;;1.42;50.54;103663.16;4981959;28;20097;-76
2023/01/23 01:46:46;;;;;;;3.13;0.77;;;;;;;1.35;50.67;103648.22;4982254;28;20049;-76
2023/01/23 01:49:25;;;;;;;4.53;1.25;;;;;;;1.32;50.39;103655.81;4980540;28;21010;-76
2023/01/23 01:52:02;;;;;;;4.30;0.65;;;;;;;1.26;50.64;103653.88;4965595;28;20471;-75
2023/01/23 01:54:45;;;;;;;1.90;0.60;;;;;;;1.30;50.55;103657.44;4979601;28;20030;-77
2023/01/23 01:57:23;;;;;;;2.85;0.60;;;;;;;1.28;50.97;103659.06;4980544;28;20069;-77
2023/01/23 01:59:56;;;;;;;2.35;0.60;;;;;;;1.27;50.82;103659.91;4982820;28;20042;-76
2023/01/23 02:02:29;;;;;;;3.38;0.60;;;;;;;1.28;50.80;103652.25;4963607;28;20042;-78
2023/01/23 02:05:00;;;;;;;4.88;0.95;;;;;;;1.27;50.58;103644.44;4981627;28;20883;-75
2023/01/23 02:07:36;;;;;;;3.80;0.52;;;;;;;1.19;50.52;103646.66;4980753;28;20042;-76
2023/01/23 02:10:04;;;;;;;5.57;1.20;;;;;;;1.19;50.64;103656.09;4981150;28;20108;-76
2023/01/23 02:12:33;;;;;;;3.42;1.00;;;;;;;1.17;50.62;103657.72;4977125;28;20046;-76
2023/01/23 02:15:04;;;;;;;6.38;1.40;;;;;;;1.09;50.87;103660.84;4980699;28;20030;-76
2023/01/23 02:17:30;;;;;;;4.28;1.30;;;;;;;1.04;50.72;103661.47;4979205;28;20750;-76
2023/01/23 02:20:32;;;;;;;2.08;0.75;;;;;;;1.02;50.79;103666.53;4978806;28;20041;-76
2023/01/23 02:23:09;;;;;;;1.35;0.70;;;;;;;1.06;50.81;103676.19;4981592;28;20046;-76
2023/01/23 02:25:44;;;;;;;1.77;0.75;;;;;;;1.06;50.90;103681.34;4979268;28;20126;-76
2023/01/23 02:28:16;;;;;;;1.48;0.70;;;;;;;1.12;50.98;103675.56;4980589;28;20061;-78
2023/01/23 02:30:45;;;;;;;4.32;0.70;;;;;;;1.13;50.60;103681.56;4981922;28;20593;-77
2023/01/23 02:33:11;;;;;;;5.22;0.65;;;;;;;1.17;50.85;103686.06;4979538;28;20092;-76
2023/01/23 02:35:38;;;;;;;3.97;0.85;;;;;;;1.20;50.73;103689.66;4978850;28;20034;-77
2023/01/23 02:38:08;;;;;;;6.65;0.85;;;;;;;1.22;50.45;103692.31;4979044;28;20054;-76
2023/01/23 02:40:37;;;;;;;4.63;1.05;;;;;;;1.23;50.76;103696.66;4981700;28;20552;-76
2023/01/23 02:43:06;;;;;;;3.97;0.50;;;;;;;1.23;50.67;103684.63;4979624;28;21388;-77
2023/01/23 02:45:33;;;;;;;2.40;0.65;;;;;;;1.20;50.78;103688.78;4962858;28;20038;-76
2023/01/23 02:48:00;;;;;;;2.50;0.93;;;;;;;1.16;50.63;103692.03;4978056;28;20100;-76
2023/01/23 02:50:27;;;;;;;2.15;0.80;;;;;;;1.29;50.67;103697.78;4977315;28;20233;-75
2023/01/23 02:52:53;;;;;;;3.47;1.02;;;;;;;1.26;50.90;103704.50;4976516;28;20664;-77
2023/01/23 02:55:20;;;;;;;6.80;1.30;;;;;;;1.34;50.59;103703.16;4977598;28;20034;-76
2023/01/23 02:57:46;;;;;;;4.68;0.90;;;;;;;1.28;50.55;103705.44;4980580;28;20076;-76
2023/01/23 03:00:16;;;;;;;2.28;0.73;;;;;;;1.03;50.85;103712.09;4981762;28;20571;-79
2023/01/23 03:02:42;;;;;;;4.35;2.08;;;;;;;1.14;50.98;103710.00;4959821;28;20471;-76
2023/01/23 03:05:09;;;;;;;1.67;0.98;;;;;;;1.27;50.31;103711.44;4978889;28;20062;-76
2023/01/23 03:07:34;;;;;;;7.75;2.08;;;;;;;1.23;50.95;103709.53;4976284;28;20085;-76
2023/01/23 03:10:02;;;;;;;4.55;1.50;;;;;;;1.24;51.01;103704.44;4963988;28;20035;-76
2023/01/23 03:12:28;;;;;;;2.55;1.88;;;;;;;1.23;51.02;103712.09;4977950;28;20099;-77
2023/01/23 03:14:54;;;;;;;5.00;0.93;;;;;;;1.17;51.14;103716.97;4979098;28;20072;-77
2023/01/23 03:17:21;;;;;;;2.22;1.02;;;;;;;1.11;51.29;103718.47;4976863;28;20062;-75
2023/01/23 03:19:47;;;;;;;2.65;0.77;;;;;;;1.18;50.80;103727.34;4980450;28;20042;-76
2023/01/23 03:22:13;;;;;;;6.57;0.88;;;;;;;1.09;51.21;103722.66;4977946;28;20042;-75
2023/01/23 03:24:39;;;;;;;8.75;2.20;;;;;;;1.33;50.75;103722.03;4978697;28;20092;-75
2023/01/23 03:27:05;;;;;;;3.70;1.60;;;;;;;1.31;50.67;103729.66;4977674;28;20688;-77
2023/01/23 03:32:21;;;;;;;3.50;1.10;;;;;;;1.20;51.29;103738.63;4980253;28;20050;-76
2023/01/23 03:34:47;;;;;;;6.63;0.73;;;;;;;1.35;50.86;103737.53;4979549;28;20237;-77
2023/01/23 03:37:13;;;;;;;2.85;1.42;;;;;;;1.39;50.71;103736.84;4981145;28;20047;-77
2023/01/23 03:42:27;;;;;;;2.17;0.82;;;;;;;1.30;50.73;103745.97;4979473;28;20035;-77
2023/01/23 03:44:55;;;;;;;4.18;0.82;;;;;;;1.38;50.56;103741.13;4982267;28;20108;-77
2023/01/23 03:47:25;;;;;;;2.83;0.82;;;;;;;1.41;50.69;103727.53;4978146;28;20061;-77
2023/01/23 03:49:51;;;;;;;5.72;1.30;;;;;;;1.43;50.53;103731.94;4983010;28;20056;-76
2023/01/23 03:52:17;;;;;;;3.72;1.17;;;;;;;1.41;50.31;103733.56;4980450;28;20507;-77
2023/01/23 03:54:43;;;;;;;2.65;0.68;;;;;;;1.46;50.62;103734.66;4978581;28;20030;-76
2023/01/23 03:57:09;;;;;;;4.78;0.80;;;;;;;1.48;50.58;103732.13;4980243;28;20121;-76
2023/01/23 03:59:47;;;;;;;2.22;1.30;;;;;;;1.44;50.86;103733.72;4982051;28;20042;-77
2023/01/23 04:02:15;;;;;;;5.18;1.35;;;;;;;1.42;50.40;103732.75;4981707;28;20054;-77
2023/01/23 04:04:40;;;;;;;3.78;1.45;;;;;;;1.50;50.33;103733.09;4982064;28;20053;-76
2023/01/23 04:07:07;;;;;;;4.72;1.38;;;;;;;1.48;50.40;103727.88;4984722;28;20029;-77
2023/01/23 04:09:34;;;;;;;6.60;1.05;;;;;;;1.44;50.50;103731.13;4979945;28;20042;-77
2023/01/23 04:12:01;;;;;;;2.08;1.25;;;;;;;1.36;50.78;103731.56;4981502;28;20530;-75
2023/01/23 04:14:36;;;;;;;5.13;1.40;;;;;;;1.36;50.78;103735.03;4980304;28;20037;-76
2023/01/23 04:17:06;;;;;;;4.10;0.90;;;;;;;1.30;50.64;103740.81;4981767;28;20213;-76
2023/01/23 04:19:33;;;;;;;3.03;1.75;;;;;;;1.28;51.24;103742.44;4980940;28;20039;-77
2023/01/23 04:21:59;;;;;;;7.00;1.23;;;;;;;1.38;50.90;103743.72;4983184;28;20049;-77
2023/01/23 04:24:24;;;;;;;2.95;2.17;;;;;;;1.39;50.79;103737.72;4979631;28;20484;-76
2023/01/23 04:26:50;;;;;;;3.45;1.65;;;;;;;1.40;50.72;103744.69;4983426;28;20038;-76
2023/01/23 04:29:16;;;;;;;7.45;1.88;;;;;;;1.36;51.18;103742.75;4964056;28;20042;-76
2023/01/23 04:31:43;;;;;;;4.60;2.05;;;;;;;1.40;50.73;103739.53;4948047;28;20033;-76
2023/01/23 04:34:11;;;;;;;6.60;1.65;;;;;;;1.35;51.01;103746.16;4982654;28;20045;-77
2023/01/23 04:36:38;;;;;;;3.95;1.77;;;;;;;1.50;50.73;103740.81;4979528;28;20404;-76
2023/01/23 04:39:04;;;;;;;6.85;2.30;;;;;;;1.41;51.00;103741.28;4981727;28;20051;-75
2023/01/23 04:41:31;;;;;;;4.07;1.85;;;;;;;1.39;51.02;103740.31;4979638;28;20070;-76
2023/01/23 04:44:20;;;;;;;4.75;2.08;;;;;;;1.39;50.79;103740.31;4980940;28;20746;-76
2023/01/23 04:47:15;;;;;;;6.25;2.10;;;;;;;1.36;51.14;103739.31;4977439;28;20125;-76
2023/01/23 04:49:42;;;;;;;3.42;2.08;;;;;;;1.22;51.46;103749.00;4980472;28;20117;-78
2023/01/23 04:52:08;;;;;;;14.23;2.58;;;;;;;1.24;51.82;103753.41;4982534;28;20496;-76
2023/01/23 04:54:37;;;;;;;6.65;2.22;;;;;;;1.35;51.22;103753.91;4978977;28;20519;-78
2023/01/23 04:57:03;;;;;;;3.83;1.98;;;;;;;1.28;51.49;103759.56;4961833;28;20041;-76
2023/01/23 04:59:30;;;;;;;6.53;2.85;;;;;;;1.24;51.65;103757.69;4980031;28;20038;-74
2023/01/23 05:01:55;;;;;;;3.60;2.38;;;;;;;1.22;51.68;103764.47;4979618;28;20052;-76
2023/01/23 05:04:22;;;;;;;4.82;2.53;;;;;;;1.16;51.96;103772.78;4981215;28;20354;-75
2023/01/23 05:06:49;;;;;;;5.95;2.10;;;;;;;1.20;51.76;103772.13;4982342;28;20210;-76
2023/01/23 05:09:15;;;;;;;8.75;2.58;;;;;;;1.21;51.68;103778.13;4968891;28;20760;-75
2023/01/23 05:11:47;;;;;;;4.55;2.50;;;;;;;0.90;52.41;103774.13;4981456;28;20444;-77
2023/01/23 05:14:13;;;;;;;3.28;2.35;;;;;;;1.12;52.15;103773.44;4980139;28;20073;-75
2023/01/23 05:16:40;;;;;;;4.13;2.40;;;;;;;1.15;52.42;103783.00;4980635;28;20060;-78
2023/01/23 05:19:27;;;;;;;5.88;2.55;;;;;;;1.11;52.64;103782.88;4979374;28;20058;-77
2023/01/23 05:21:53;;;;;;;5.70;1.80;;;;;;;1.08;52.62;103798.19;4978442;28;20112;-76
2023/01/23 05:24:20;;;;;;;7.60;3.00;;;;;;;1.28;52.11;103793.06;4980962;28;20037;-77
2023/01/23 05:26:47;;;;;;;5.20;2.38;;;;;;;1.28;52.08;103787.91;4981456;28;20524;-75
2023/01/23 05:29:13;;;;;;;7.13;2.10;;;;;;;1.30;52.14;103788.84;4980142;28;20057;-77
2023/01/23 05:31:47;;;;;;;8.40;2.92;;;;;;;1.31;52.23;103788.06;4980034;28;20045;-76
2023/01/23 05:34:42;;;;;;;6.35;2.40;;;;;;;1.27;52.35;103788.72;4961345;28;20590;-78
2023/01/23 05:37:16;;;;;;;5.43;2.72;;;;;;;1.29;52.43;103789.69;4978441;28;20042;-76
2023/01/23 05:39:45;;;;;;;9.52;2.67;;;;;;;1.37;51.98;103790.03;4981544;28;20038;-76
2023/01/23 05:42:11;;;;;;;9.68;2.38;;;;;;;1.35;52.00;103787.41;4979374;28;20038;-76
2023/01/23 05:44:48;;;;;;;7.03;2.38;;;;;;;1.31;52.13;103785.50;4980306;28;20493;-75
2023/01/23 05:47:28;;;;;;;4.82;2.22;;;;;;;1.25;51.98;103791.22;4977770;28;20041;-77
2023/01/23 05:49:55;;;;;;;6.18;2.78;;;;;;;1.30;52.15;103788.84;4980337;28;20023;-76
2023/01/23 05:52:24;;;;;;;8.48;3.17;;;;;;;1.23;52.64;103786.81;4975722;28;20107;-76
2023/01/23 05:54:50;;;;;;;9.02;2.33;;;;;;;1.34;52.12;103783.03;4979990;28;20034;-76
2023/01/23 05:57:16;;;;;;;6.60;2.67;;;;;;;1.35;52.39;103776.19;4977586;28;20182;-77
2023/01/23 06:00:10;;;;;;;5.75;2.47;;;;;;;1.34;52.14;103775.31;4979341;28;20034;-76
2023/01/23 06:02:53;;;;;;;5.32;3.42;;;;;;;1.21;52.47;103773.00;4979031;28;20643;-76
2023/01/23 06:05:40;;;;;;;9.95;2.38;;;;;;;1.31;52.50;103770.03;4976907;28;20450;-76
2023/01/23 06:08:10;;;;;;;4.90;2.47;;;;;;;1.17;52.75;103771.06;4980580;28;20404;-75
2023/01/23 06:10:39;;;;;;;12.98;3.15;;;;;;;1.06;52.30;103768.91;4977995;28;20038;-76
2023/01/23 06:13:05;;;;;;;3.67;2.58;;;;;;;1.20;52.32;103771.25;4979453;28;20045;-77
2023/01/23 06:15:31;;;;;;;5.47;2.78;;;;;;;1.21;52.53;103773.84;4979004;28;20455;-78
2023/01/23 06:17:59;;;;;;;8.43;3.47;;;;;;;1.20;52.47;103773.81;4978644;28;20125;-79
2023/01/23 06:20:25;;;;;;;10.38;2.83;;;;;;;1.24;52.33;103768.88;4978300;28;20026;-78
2023/01/23 06:22:50;;;;;;;6.72;3.70;;;;;;;1.29;52.28;103779.38;4978033;28;20042;-78
2023/01/23 06:25:19;;;;;;;7.22;2.80;;;;;;;1.12;52.45;103778.59;4978159;28;20034;-80
2023/01/23 06:27:45;;;;;;;9.65;3.28;;;;;;;1.09;52.47;103787.06;4961387;28;20655;-79
2023/01/23 06:30:13;;;;;;;12.23;3.30;;;;;;;1.20;52.38;103789.28;4978691;28;20105;-78
2023/01/23 06:32:41;;;;;;;12.90;4.03;;;;;;;1.11;52.78;103793.19;4956519;28;20074;-80
2023/01/23 06:35:08;;;;;;;6.90;3.33;;;;;;;1.10;52.81;103806.88;4977478;28;20392;-79
2023/01/23 06:37:37;;;;;;;6.63;3.28;;;;;;;1.26;52.36;103797.25;4973795;28;20050;-79
2023/01/23 06:40:04;;;;;;;7.63;3.72;;;;;;;1.27;52.50;103801.63;4962931;28;20041;-80
2023/01/23 06:42:30;;;;;;;5.13;3.30;;;;;;;1.23;52.53;103802.28;4975144;28;20045;-78
2023/01/23 06:44:57;;;;;;;8.75;2.70;;;;;;;1.25;52.36;103817.00;4978774;28;20085;-78
2023/01/23 06:47:24;;;;;;;6.40;3.53;;;;;;;1.26;52.25;103808.47;4977502;28;20046;-76
2023/01/23 06:49:57;;;;;;;6.97;3.10;;;;;;;1.21;52.65;103814.22;4980900;28;20030;-77
2023/01/23 06:52:24;;;;;;;7.22;3.47;;;;;;;1.22;52.65;103819.44;4976177;28;20047;-78
2023/01/23 06:54:50;;;;;;;5.70;2.30;;;;;;;1.29;52.39;103820.63;4960727;28;20530;-77
2023/01/23 06:57:15;;;;;;;10.20;3.42;;;;;;;1.29;52.66;103823.19;4977630;28;20849;-76
2023/01/23 06:59:43;;;;;;;12.93;3.92;;;;;;;1.27;52.69;103827.38;4976154;28;20033;-78
2023/01/23 07:02:12;;;;;;;4.07;3.22;;;;;;;1.28;52.72;103827.47;4960903;28;20044;-79
2023/01/23 07:04:44;;;;;;;8.93;2.65;;;;;;;1.29;52.26;103828.34;4980328;28;20034;-78
2023/01/23 07:07:10;;;;;;;4.60;2.60;;;;;;;1.34;52.67;103833.72;4983616;28;20050;-78
2023/01/23 07:09:38;;;;;;;5.38;2.60;;;;;;;1.30;52.62;103840.41;4980180;28;20038;-79
2023/01/23 07:12:12;;;;;;;5.10;2.45;;;;;;;1.28;52.66;103834.28;4982001;28;20129;-79
2023/01/23 07:14:38;;;;;;;9.80;3.17;;;;;;;1.26;52.58;103836.81;4958645;28;20089;-80
2023/01/23 07:17:06;;;;;;;7.63;3.13;;;;;;;1.28;52.55;103827.47;4984020;28;20034;-78
2023/01/23 07:19:34;;;;;;;5.43;2.65;;;;;;;1.21;52.24;103827.97;4963339;28;20783;-78
2023/01/23 07:22:02;;;;;;;8.18;3.72;;;;;;;1.26;52.65;103839.41;4967730;28;20035;-78
2023/01/23 07:24:30;;;;;;;5.35;2.83;;;;;;;1.29;52.64;103836.06;4966176;28;20041;-81
2023/01/23 07:26:56;;;;;;;7.20;4.00;;;;;;;1.28;52.64;103842.03;4981861;28;20037;-79
2023/01/23 07:29:22;;;;;;;5.70;3.63;;;;;;;1.20;52.51;103845.97;4981645;28;20030;-79
2023/01/23 07:31:48;;;;;;;12.30;3.38;;;;;;;1.19;52.58;103852.78;4966804;28;20038;-79
2023/01/23 07:34:14;;;;;;;5.38;2.50;;;;;;;1.19;52.79;103859.63;4984128;28;20061;-78
2023/01/23 07:36:40;;;;;;;7.90;3.70;;;;;;;1.16;52.90;103859.50;4979812;28;20500;-79
2023/01/23 07:39:05;;;;;;;7.55;2.95;;;;;;;1.21;52.48;103860.59;4980487;28;20038;-80
2023/01/23 07:41:31;;;;;;;8.40;3.72;;;;;;;1.22;52.32;103867.53;4979958;28;20544;-78
2023/01/23 07:44:02;;;;;;;7.40;4.60;;;;;;;1.13;52.56;103861.91;4982661;28;20065;-78
2023/01/23 07:46:27;;;;;;;8.48;3.83;;;;;;;1.22;52.49;103862.38;4979105;28;20039;-76
2023/01/23 07:48:55;;;;;;;8.15;3.80;;;;;;;1.22;52.36;103867.53;4981360;28;20054;-77
2023/01/23 07:51:20;;;;;;;7.35;4.00;;;;;;;1.26;52.13;103861.69;4981887;28;20042;-76
2023/01/23 07:53:46;;;;;;;8.48;4.15;;;;;;;1.32;52.16;103859.41;4979468;28;20042;-76
2023/01/23 07:56:12;;;;;;;8.35;3.65;;;;;;;1.32;51.67;103857.69;4980661;28;20080;-77
2023/01/23 07:58:38;;;;;;;9.02;3.53;;;;;;;1.31;51.88;103853.38;4979347;28;20034;-76
2023/01/23 08:01:10;;;;;;;6.93;4.28;;;;;;;1.29;51.90;103860.13;4981921;28;20113;-78
2023/01/23 08:03:36;;;;;;;10.77;4.03;;;;;;;1.28;52.05;103862.63;4978343;28;20605;-77
2023/01/23 08:06:02;;;;;;;11.38;4.07;;;;;;;1.38;51.80;103867.41;4979101;28;20026;-77
2023/01/23 08:08:29;;;;;;;7.32;3.70;;;;;;;1.37;52.20;103870.78;4978569;28;20064;-77
2023/01/23 08:10:55;;;;;;;11.00;4.68;;;;;;;1.20;52.30;103874.31;4979226;28;20088;-78
2023/01/23 08:13:20;;;;;;;8.70;3.60;;;;;;;1.41;52.20;103879.59;4979665;28;20038;-76
2023/01/23 08:15:46;;;;;;;6.00;3.92;;;;;;;1.48;51.83;103879.06;4975614;28;20041;-78
2023/01/23 08:18:11;;;;;;;9.85;4.28;;;;;;;1.52;51.84;103889.59;4978908;28;20381;-80
2023/01/23 08:20:38;;;;;;;10.20;3.92;;;;;;;1.45;52.06;103882.38;4977862;28;20022;-78
2023/01/23 08:23:04;;;;;;;16.40;4.00;;;;;;;1.56;51.64;103877.72;4974355;28;20096;-80
2023/01/23 08:25:29;;;;;;;5.75;3.38;;;;;;;1.46;51.87;103875.53;4979136;28;20034;-80
2023/01/23 08:27:55;;;;;;;9.65;4.05;;;;;;;1.41;51.97;103880.47;4977120;28;20042;-78
2023/01/23 08:30:21;;;;;;;9.25;4.43;;;;;;;1.43;52.11;103877.97;4978246;28;20038;-76
2023/01/23 08:32:46;;;;;;;9.77;3.75;;;;;;;1.35;52.04;103869.88;4980158;28;20066;-78
2023/01/23 08:35:12;;;;;;;7.18;3.53;;;;;;;1.39;52.15;103870.88;4979147;28;20038;-79
2023/01/23 08:37:37;;;;;;;8.63;3.67;;;;;;;1.42;52.12;103871.06;4978447;28;20038;-78
2023/01/23 08:40:03;;;;;;;5.53;3.65;;;;;;;1.58;51.85;103878.69;4980311;28;20042;-78
2023/01/23 08:42:29;;;;;;;12.65;4.05;;;;;;;1.51;51.43;103877.53;4978920;28;20066;-75
2023/01/23 08:44:54;;;;;;;7.05;3.72;;;;;;;1.21;52.53;103879.50;4977548;28;20843;-78
2023/01/23 08:47:20;;;;;;;5.22;3.30;;;;;;;1.32;51.98;103880.00;4979613;28;20830;-77
2023/01/23 08:49:45;;;;;;;10.40;3.67;;;;;;;1.35;52.14;103880.19;4979972;28;20022;-78
2023/01/23 08:52:11;;;;;;;12.27;4.03;;;;;;;1.50;51.94;103891.19;4980939;28;20887;-76
2023/01/23 08:54:36;;;;;;;7.68;3.95;;;;;;;1.40;52.17;103893.28;4977695;28;20061;-77
2023/01/23 08:57:02;;;;;;;12.63;4.78;;;;;;;1.35;52.13;103894.72;4980866;28;20157;-77
2023/01/23 08:59:27;;;;;;;8.10;3.63;;;;;;;1.46;51.89;103902.22;4979533;28;20433;-76
2023/01/23 09:01:53;;;;;;;7.38;3.70;;;;;;;1.63;51.46;103907.25;4977057;28;20123;-76
2023/01/23 09:04:18;;;;;;;8.40;3.85;;;;;;;1.54;51.71;103901.69;4979038;28;20125;-76
2023/01/23 09:06:44;;;;;;;12.48;4.18;;;;;;;1.70;51.22;103911.88;4981058;28;20038;-76
2023/01/23 09:09:09;;;;;;;7.63;4.28;;;;;;;1.85;51.18;103903.97;4981718;28;20050;-76
2023/01/23 09:11:34;;;;;;;9.00;3.85;;;;;;;1.57;51.62;103902.69;4976234;28;20045;-76
2023/01/23 09:14:00;;;;;;;9.35;4.60;;;;;;;1.51;51.16;103903.31;4977309;28;20052;-76
2023/01/23 09:16:25;;;;;;;12.38;3.80;;;;;;;1.34;52.17;103899.00;4977844;28;20152;-77
2023/01/23 09:18:54;;;;;;;6.90;3.38;;;;;;;1.40;51.52;103895.84;4976658;28;20026;-78
2023/01/23 09:21:19;;;;;;;9.20;3.90;;;;;;;1.57;51.30;103897.53;4976256;28;20147;-77
2023/01/23 09:23:44;;;;;;;7.88;3.83;;;;;;;1.82;50.93;103894.38;4978347;28;20621;-76
2023/01/23 09:26:13;;;;;;;12.25;4.40;;;;;;;1.89;50.72;103904.16;4983150;28;20475;-76
2023/01/23 09:28:41;;;;;;;7.25;4.00;;;;;;;1.85;50.48;103907.41;4975926;28;20050;-76
2023/01/23 09:31:09;;;;;;;8.85;4.32;;;;;;;1.86;50.80;103908.28;4980412;28;20026;-77
2023/01/23 09:33:36;;;;;;;12.15;4.22;;;;;;;1.91;50.55;103906.81;4978514;28;20055;-76
2023/01/23 09:36:03;;;;;;;11.30;4.88;;;;;;;1.91;50.63;103912.84;4980136;28;20085;-76
2023/01/23 09:38:28;;;;;;;11.18;4.63;;;;;;;1.94;50.86;103915.56;4976721;28;20046;-76
2023/01/23 09:40:56;;;;;;;7.57;4.22;;;;;;;2.01;50.66;103915.84;4978001;28;20022;-76
2023/01/23 09:43:32;;;;;;;7.30;4.60;;;;;;;1.94;50.06;103912.97;4976934;28;20073;-78
2023/01/23 09:46:13;;;;;;;8.98;4.47;;;;;;;1.94;50.59;103920.72;4976287;28;20038;-78
2023/01/23 09:48:44;;;;;;;7.45;3.83;;;;;;;2.00;50.47;103920.13;4972367;28;20499;-77
2023/01/23 09:51:42;;;;;;;4.55;2.45;;;;;;;2.18;50.16;103927.81;4952746;28;20547;-75
2023/01/23 09:54:28;;;;;;;8.65;4.32;;;;;;;2.11;49.73;103933.50;4972682;28;20042;-75
2023/01/23 09:56:55;;;;;;;10.68;3.95;;;;;;;2.10;50.08;103931.72;4974346;28;20045;-77
2023/01/23 09:59:37;;;;;;;7.80;3.63;;;;;;;2.24;50.40;103933.25;4972557;28;20045;-75
2023/01/23 10:02:14;;;;;;;8.30;4.28;;;;;;;2.45;50.08;103927.22;4973613;28;20148;-76
2023/01/23 10:04:39;;;;;;;10.48;4.78;;;;;;;2.52;49.80;103918.94;4970619;28;20037;-76
2023/01/23 10:07:10;;;;;;;10.57;4.53;;;;;;;2.51;49.30;103925.81;4956777;28;20033;-75
2023/01/23 10:09:44;;;;;;;14.13;4.85;;;;;;;2.38;49.91;103932.94;4973882;28;20087;-76
2023/01/23 10:12:38;;;;;;;14.15;4.80;;;;;;;2.25;49.63;103927.25;4976359;28;22637;-75
2023/01/23 10:15:41;;;;;;;7.60;4.03;;;;;;;2.34;49.65;103927.66;4980161;28;20036;-76
2023/01/23 10:18:34;;;;;;;12.20;6.22;;;;;;;2.39;49.46;103922.69;4978958;28;20065;-76
2023/01/23 10:21:00;;;;;;;8.52;4.50;;;;;;;2.42;49.04;103925.41;4956475;28;20133;-77
2023/01/23 10:23:46;;;;;;;9.38;5.82;;;;;;;2.32;49.32;103928.41;4973193;28;20400;-76
2023/01/23 10:26:22;;;;;;;11.30;5.22;;;;;;;2.26;49.55;103925.53;4978926;28;20264;-75
2023/01/23 10:28:53;;;;;;;18.75;6.60;;;;;;;2.33;49.55;103918.16;4976718;28;20041;-76
2023/01/23 10:31:31;;;;;;;8.35;4.65;;;;;;;2.37;49.35;103926.00;4978692;28;20026;-76
2023/01/23 10:33:59;;;;;;;9.52;4.72;;;;;;;2.51;49.06;103919.72;4977263;28;20167;-76
2023/01/23 10:36:30;;;;;;;8.20;4.57;;;;;;;2.66;49.15;103922.97;4980045;28;20632;-75
2023/01/23 10:39:03;;;;;;;10.15;5.28;;;;;;;2.59;48.50;103915.78;4977372;28;20058;-75
2023/01/23 10:41:28;;;;;;;12.07;4.90;;;;;;;2.70;48.55;103921.41;4979884;28;20058;-76
2023/01/23 10:43:56;;;;;;;9.52;3.97;;;;;;;2.90;48.20;103922.22;4978970;28;20069;-77
2023/01/23 10:46:36;;;;;;;9.32;4.18;;;;;;;3.00;48.07;103910.56;4978689;28;20030;-75
2023/01/23 10:49:02;;;;;;;16.70;4.85;;;;;;;2.96;48.29;103917.31;4977329;28;20054;-76
2023/01/23 10:51:38;;;;;;;11.13;5.93;;;;;;;2.95;48.15;103920.69;4959171;28;20026;-76
2023/01/23 10:54:08;;;;;;;7.35;5.03;;;;;;;2.93;47.58;103925.78;4978565;28;20049;-75
2023/01/23 10:56:38;;;;;;;13.48;5.00;;;;;;;2.90;47.21;103920.53;4975865;28;20460;-75
2023/01/23 10:59:06;;;;;;;6.82;4.93;;;;;;;2.82;47.71;103919.31;4978547;28;20053;-75
2023/01/23 11:01:34;;;;;;;7.88;4.35;;;;;;;2.51;48.33;103922.31;4978099;28;20042;-76
2023/01/23 11:04:17;;;;;;;10.32;4.50;;;;;;;2.45;48.29;103922.06;4956504;28;20073;-75
2023/01/23 11:06:44;;;;;;;8.45;4.75;;;;;;;2.45;48.33;103925.53;4975865;28;20567;-75
2023/01/23 11:09:19;;;;;;;7.15;4.40;;;;;;;2.51;47.81;103919.72;4962553;28;20087;-75
2023/01/23 11:12:02;;;;;;;7.72;4.05;;;;;;;2.59;47.49;103928.69;4976911;28;20173;-76
2023/01/23 11:14:27;;;;;;;5.15;3.92;;;;;;;2.69;47.54;103924.78;4975261;28;20046;-76
2023/01/23 11:17:12;;;;;;;9.70;4.43;;;;;;;2.55;46.96;103927.69;4975721;28;20124;-77
2023/01/23 11:19:38;;;;;;;9.23;4.93;;;;;;;2.47;47.47;103918.72;4976388;28;20685;-77
2023/01/23 11:22:20;;;;;;;8.07;4.35;;;;;;;2.63;47.82;103925.44;4976696;28;20120;-77
2023/01/23 11:24:45;;;;;;;2.67;2.30;;;;;;;2.68;47.62;103926.50;4975970;28;20038;-76
2023/01/23 11:27:13;;;;;;;13.23;4.80;;;;;;;2.72;47.23;103919.78;4975864;28;20052;-76
2023/01/23 11:30:07;;;;;;;9.70;4.13;;;;;;;2.81;46.93;103917.56;4976699;28;20125;-75
2023/01/23 11:32:48;;;;;;;8.93;4.72;;;;;;;2.70;47.14;103911.94;4974795;28;20117;-75
2023/01/23 11:35:20;;;;;;;5.73;3.43;;;;;;;2.86;46.95;103920.34;4958335;28;20088;-75
2023/01/23 11:37:46;;;;;;;10.00;4.55;;;;;;;2.97;46.44;103919.94;4976864;28;20046;-77
2023/01/23 11:40:16;;;;;;;7.82;4.80;;;;;;;2.85;46.37;103919.47;4977918;28;20515;-77
2023/01/23 11:42:42;;;;;;;7.40;4.38;;;;;;;2.85;46.34;103919.47;4976433;28;20050;-76
2023/01/23 11:45:50;;;;;;;8.98;4.97;;;;;;;2.85;46.06;103916.00;4978292;28;20033;-78
2023/01/23 11:48:53;;;;;;;9.25;4.22;;;;;;;2.81;46.72;103903.78;4969408;28;20094;-77